This is the latest recevied weather packets stored in our database for station/object K5OBH. If no packets are shown the sender has not sent any weather packets the latest 10 day(s).
| Time | Temp. | Humidity | Pressure | Rain* | Wind** | Luminosity | Snow |
|---|---|---|---|---|---|---|---|
| 1778013918 | 12.78° C | 77% | 1008.3 hPa | 0 mm | - | 190 W/m² | - |
| 1778013615 | 12.78° C | 78% | 1007.9 hPa | 0 mm | - | 229 W/m² | - |
| 1778013312 | 12.78° C | 78% | 1008.1 hPa | 0 mm | - | 181 W/m² | - |
| 1778013008 | 12.78° C | 79% | 1008.2 hPa | 0 mm | - | 178 W/m² | - |
| 1778012705 | 12.78° C | 79% | 1008.4 hPa | 0 mm | - | 184 W/m² | - |
| 1778012400 | 12.22° C | 80% | 1008 hPa | 0 mm | - | 215 W/m² | - |
| 1778012097 | 12.22° C | 80% | 1008.6 hPa | 0 mm | - | 89 W/m² | - |
| 1778011795 | 12.22° C | 81% | 1008.2 hPa | 0 mm | - | 140 W/m² | - |
| 1778011493 | 12.22° C | 81% | 1008.2 hPa | 0 mm | - | 119 W/m² | - |
| 1778011188 | 12.22° C | 81% | 1008.1 hPa | 0 mm | - | 122 W/m² | - |
| 1778010886 | 12.78° C | 80% | 1007.8 hPa | 0 mm | - | 158 W/m² | - |
| 1778010583 | 12.22° C | 81% | 1007.5 hPa | 0 mm | - | 206 W/m² | - |
| 1778010280 | 12.22° C | 82% | 1007.8 hPa | 0 mm | - | 184 W/m² | - |
| 1778009980 | 12.78° C | 82% | 1007.9 hPa | 0 mm | - | 163 W/m² | - |
| 1778009678 | 12.78° C | 82% | 1007.6 hPa | 0 mm | - | 178 W/m² | - |
| 1778009376 | 12.78° C | 83% | 1007.6 hPa | 0 mm | - | 171 W/m² | - |
| 1778009074 | 12.78° C | 83% | 1007.9 hPa | 0 mm | - | 157 W/m² | - |
| 1778008771 | 12.78° C | 82% | 1007.6 hPa | 0 mm | - | 144 W/m² | - |
| 1778008470 | 12.78° C | 83% | 1007.9 hPa | 0 mm | - | 141 W/m² | - |
| 1778008166 | 13.33° C | 83% | 1007.8 hPa | 0 mm | - | 137 W/m² | - |
| 1778007861 | 13.33° C | 83% | 1007.8 hPa | 0 mm | - | 153 W/m² | - |
| 1778007557 | 13.33° C | 82% | 1007.7 hPa | 0 mm | - | 164 W/m² | - |
| 1778007255 | 13.33° C | 82% | 1007.4 hPa | 0 mm | - | 168 W/m² | - |
| 1778006950 | 13.89° C | 81% | 1007 hPa | 0 mm | - | 206 W/m² | - |
| 1778006647 | 13.89° C | 81% | 1007.2 hPa | 0 mm | - | 232 W/m² | - |
* Rain latest hour (hover to see other rain measurements)
** Current wind speed in m/s (hover to see current wind gust speed)